sensor_id;sensor_type;location;lat;lon;timestamp;temperature;humidity
22645;DHT22;11489;50.834;6.752;2023-02-02T00:00:36;7.60;91.70
22645;DHT22;11489;50.834;6.752;2023-02-02T00:03:02;7.60;91.70
22645;DHT22;11489;50.834;6.752;2023-02-02T00:05:27;7.60;91.70
22645;DHT22;11489;50.834;6.752;2023-02-02T00:07:53;7.60;91.70
22645;DHT22;11489;50.834;6.752;2023-02-02T00:10:18;7.60;91.70
22645;DHT22;11489;50.834;6.752;2023-02-02T00:12:44;7.60;91.70
22645;DHT22;11489;50.834;6.752;2023-02-02T00:15:10;7.60;91.70
22645;DHT22;11489;50.834;6.752;2023-02-02T00:17:35;7.60;91.80
22645;DHT22;11489;50.834;6.752;2023-02-02T00:20:01;7.60;91.80
22645;DHT22;11489;50.834;6.752;2023-02-02T00:22:27;7.60;91.90
22645;DHT22;11489;50.834;6.752;2023-02-02T00:24:52;7.60;91.80
22645;DHT22;11489;50.834;6.752;2023-02-02T00:27:18;7.60;91.70
22645;DHT22;11489;50.834;6.752;2023-02-02T00:29:43;7.60;91.80
22645;DHT22;11489;50.834;6.752;2023-02-02T00:32:10;7.60;91.80
22645;DHT22;11489;50.834;6.752;2023-02-02T00:34:35;7.60;91.90
22645;DHT22;11489;50.834;6.752;2023-02-02T00:37:01;7.60;91.80
22645;DHT22;11489;50.834;6.752;2023-02-02T00:39:27;7.60;91.90
22645;DHT22;11489;50.834;6.752;2023-02-02T00:41:53;7.60;91.90
22645;DHT22;11489;50.834;6.752;2023-02-02T00:44:18;7.60;91.90
22645;DHT22;11489;50.834;6.752;2023-02-02T00:47:03;7.70;92.00
22645;DHT22;11489;50.834;6.752;2023-02-02T00:49:29;7.70;92.00
22645;DHT22;11489;50.834;6.752;2023-02-02T00:51:55;7.70;91.90
22645;DHT22;11489;50.834;6.752;2023-02-02T00:54:20;7.70;92.00
22645;DHT22;11489;50.834;6.752;2023-02-02T00:56:46;7.70;91.90
22645;DHT22;11489;50.834;6.752;2023-02-02T00:59:12;7.80;91.90
22645;DHT22;11489;50.834;6.752;2023-02-02T01:01:38;7.70;91.90
22645;DHT22;11489;50.834;6.752;2023-02-02T01:04:04;7.80;91.90
22645;DHT22;11489;50.834;6.752;2023-02-02T01:06:30;7.80;91.90
22645;DHT22;11489;50.834;6.752;2023-02-02T01:08:55;7.80;91.90
22645;DHT22;11489;50.834;6.752;2023-02-02T01:11:21;7.80;91.90
22645;DHT22;11489;50.834;6.752;2023-02-02T01:13:47;7.80;91.90
22645;DHT22;11489;50.834;6.752;2023-02-02T01:16:12;7.80;91.90
22645;DHT22;11489;50.834;6.752;2023-02-02T01:18:38;7.80;91.80
22645;DHT22;11489;50.834;6.752;2023-02-02T01:21:07;7.80;91.80
22645;DHT22;11489;50.834;6.752;2023-02-02T01:23:33;7.90;91.80
22645;DHT22;11489;50.834;6.752;2023-02-02T01:26:01;7.80;91.80
22645;DHT22;11489;50.834;6.752;2023-02-02T01:28:27;7.80;91.80
22645;DHT22;11489;50.834;6.752;2023-02-02T01:30:53;7.80;91.80
22645;DHT22;11489;50.834;6.752;2023-02-02T01:33:19;7.80;91.90
22645;DHT22;11489;50.834;6.752;2023-02-02T01:35:50;7.80;91.90
22645;DHT22;11489;50.834;6.752;2023-02-02T01:38:16;7.80;91.80
22645;DHT22;11489;50.834;6.752;2023-02-02T01:40:53;7.90;91.90
22645;DHT22;11489;50.834;6.752;2023-02-02T01:45:51;7.90;91.90
22645;DHT22;11489;50.834;6.752;2023-02-02T01:48:31;7.90;92.00
22645;DHT22;11489;50.834;6.752;2023-02-02T01:51:01;7.90;91.90
22645;DHT22;11489;50.834;6.752;2023-02-02T01:53:28;7.90;91.90
22645;DHT22;11489;50.834;6.752;2023-02-02T01:55:54;7.90;91.90
22645;DHT22;11489;50.834;6.752;2023-02-02T01:58:24;7.90;91.90
22645;DHT22;11489;50.834;6.752;2023-02-02T02:00:50;7.90;91.90
22645;DHT22;11489;50.834;6.752;2023-02-02T02:03:20;7.90;91.80
22645;DHT22;11489;50.834;6.752;2023-02-02T02:05:51;8.00;91.90
22645;DHT22;11489;50.834;6.752;2023-02-02T02:08:21;8.00;91.80
22645;DHT22;11489;50.834;6.752;2023-02-02T02:10:48;8.00;91.80
22645;DHT22;11489;50.834;6.752;2023-02-02T02:13:14;8.00;91.80
22645;DHT22;11489;50.834;6.752;2023-02-02T02:16:04;8.00;91.80
22645;DHT22;11489;50.834;6.752;2023-02-02T02:28:07;8.00;91.30
22645;DHT22;11489;50.834;6.752;2023-02-02T02:33:48;8.00;91.50
22645;DHT22;11489;50.834;6.752;2023-02-02T02:36:47;8.00;91.50
22645;DHT22;11489;50.834;6.752;2023-02-02T02:41:46;7.90;91.70
22645;DHT22;11489;50.834;6.752;2023-02-02T02:44:15;7.90;91.60
22645;DHT22;11489;50.834;6.752;2023-02-02T02:46:41;7.90;91.70
22645;DHT22;11489;50.834;6.752;2023-02-02T02:49:11;7.90;91.80
22645;DHT22;11489;50.834;6.752;2023-02-02T02:51:48;7.90;91.70
22645;DHT22;11489;50.834;6.752;2023-02-02T02:54:34;7.80;91.70
22645;DHT22;11489;50.834;6.752;2023-02-02T03:05:04;7.80;91.70
22645;DHT22;11489;50.834;6.752;2023-02-02T03:07:40;7.80;91.60
22645;DHT22;11489;50.834;6.752;2023-02-02T03:10:10;7.80;91.80
22645;DHT22;11489;50.834;6.752;2023-02-02T03:12:47;7.80;92.20
22645;DHT22;11489;50.834;6.752;2023-02-02T03:15:14;7.90;91.80
22645;DHT22;11489;50.834;6.752;2023-02-02T03:17:41;7.80;91.90
22645;DHT22;11489;50.834;6.752;2023-02-02T03:20:08;7.80;91.90
22645;DHT22;11489;50.834;6.752;2023-02-02T03:22:34;7.80;91.90
22645;DHT22;11489;50.834;6.752;2023-02-02T03:25:00;7.80;91.90
22645;DHT22;11489;50.834;6.752;2023-02-02T03:27:26;7.80;91.80
22645;DHT22;11489;50.834;6.752;2023-02-02T03:29:53;7.80;91.80
22645;DHT22;11489;50.834;6.752;2023-02-02T03:32:18;7.80;91.90
22645;DHT22;11489;50.834;6.752;2023-02-02T03:34:44;7.80;91.90
22645;DHT22;11489;50.834;6.752;2023-02-02T03:37:10;7.80;91.80
22645;DHT22;11489;50.834;6.752;2023-02-02T03:39:35;7.80;91.80
22645;DHT22;11489;50.834;6.752;2023-02-02T03:42:01;7.80;91.90
22645;DHT22;11489;50.834;6.752;2023-02-02T03:44:27;7.80;91.80
22645;DHT22;11489;50.834;6.752;2023-02-02T03:46:53;7.80;91.90
22645;DHT22;11489;50.834;6.752;2023-02-02T03:49:19;7.80;91.90
22645;DHT22;11489;50.834;6.752;2023-02-02T03:51:45;7.80;91.90
22645;DHT22;11489;50.834;6.752;2023-02-02T03:54:11;7.80;91.90
22645;DHT22;11489;50.834;6.752;2023-02-02T03:56:37;7.80;91.90
22645;DHT22;11489;50.834;6.752;2023-02-02T03:59:03;7.80;92.00
22645;DHT22;11489;50.834;6.752;2023-02-02T04:01:29;7.80;92.00
22645;DHT22;11489;50.834;6.752;2023-02-02T04:03:56;7.80;92.00
22645;DHT22;11489;50.834;6.752;2023-02-02T04:06:22;7.80;92.00
22645;DHT22;11489;50.834;6.752;2023-02-02T04:08:49;7.80;92.00
22645;DHT22;11489;50.834;6.752;2023-02-02T04:11:16;7.80;92.00
22645;DHT22;11489;50.834;6.752;2023-02-02T04:13:42;7.80;92.00
22645;DHT22;11489;50.834;6.752;2023-02-02T04:16:09;7.80;92.00
22645;DHT22;11489;50.834;6.752;2023-02-02T04:18:35;7.80;92.00
22645;DHT22;11489;50.834;6.752;2023-02-02T04:21:04;7.80;92.00
22645;DHT22;11489;50.834;6.752;2023-02-02T04:23:31;7.80;92.00
22645;DHT22;11489;50.834;6.752;2023-02-02T04:25:57;7.80;92.00
22645;DHT22;11489;50.834;6.752;2023-02-02T04:28:23;7.80;92.30
22645;DHT22;11489;50.834;6.752;2023-02-02T04:30:50;7.80;92.00
22645;DHT22;11489;50.834;6.752;2023-02-02T04:33:16;7.80;92.00
22645;DHT22;11489;50.834;6.752;2023-02-02T04:35:42;7.80;92.00
22645;DHT22;11489;50.834;6.752;2023-02-02T04:38:08;7.80;92.00
22645;DHT22;11489;50.834;6.752;2023-02-02T04:40:40;7.80;92.00
22645;DHT22;11489;50.834;6.752;2023-02-02T04:43:06;7.80;92.00
22645;DHT22;11489;50.834;6.752;2023-02-02T04:45:32;7.80;92.00
22645;DHT22;11489;50.834;6.752;2023-02-02T04:47:58;7.80;92.10
22645;DHT22;11489;50.834;6.752;2023-02-02T04:50:24;7.80;92.10
22645;DHT22;11489;50.834;6.752;2023-02-02T04:52:49;7.80;92.10
22645;DHT22;11489;50.834;6.752;2023-02-02T04:55:15;7.90;92.10
22645;DHT22;11489;50.834;6.752;2023-02-02T04:57:41;7.90;92.00
22645;DHT22;11489;50.834;6.752;2023-02-02T05:00:07;7.90;92.10
22645;DHT22;11489;50.834;6.752;2023-02-02T05:02:34;7.90;92.00
22645;DHT22;11489;50.834;6.752;2023-02-02T05:05:01;7.90;92.00
22645;DHT22;11489;50.834;6.752;2023-02-02T05:07:26;7.90;92.00
22645;DHT22;11489;50.834;6.752;2023-02-02T05:09:52;7.90;91.90
22645;DHT22;11489;50.834;6.752;2023-02-02T05:12:18;7.90;91.90
22645;DHT22;11489;50.834;6.752;2023-02-02T05:14:43;7.90;91.90
22645;DHT22;11489;50.834;6.752;2023-02-02T05:17:09;7.90;91.90
22645;DHT22;11489;50.834;6.752;2023-02-02T05:19:34;7.90;91.90
22645;DHT22;11489;50.834;6.752;2023-02-02T05:22:00;7.90;91.90
22645;DHT22;11489;50.834;6.752;2023-02-02T05:24:26;7.80;91.90
22645;DHT22;11489;50.834;6.752;2023-02-02T05:26:52;7.80;92.20
22645;DHT22;11489;50.834;6.752;2023-02-02T05:29:23;7.90;91.90
22645;DHT22;11489;50.834;6.752;2023-02-02T05:31:49;7.80;92.00
22645;DHT22;11489;50.834;6.752;2023-02-02T05:34:14;7.80;92.00
22645;DHT22;11489;50.834;6.752;2023-02-02T05:36:40;7.80;92.00
22645;DHT22;11489;50.834;6.752;2023-02-02T05:39:06;7.80;92.00
22645;DHT22;11489;50.834;6.752;2023-02-02T05:41:31;7.80;91.90
22645;DHT22;11489;50.834;6.752;2023-02-02T05:44:00;7.80;91.90
22645;DHT22;11489;50.834;6.752;2023-02-02T05:46:26;7.80;91.90
22645;DHT22;11489;50.834;6.752;2023-02-02T05:48:52;7.80;91.90
22645;DHT22;11489;50.834;6.752;2023-02-02T05:51:22;7.70;91.90
22645;DHT22;11489;50.834;6.752;2023-02-02T05:53:48;7.80;91.90
22645;DHT22;11489;50.834;6.752;2023-02-02T05:56:14;7.70;91.90
22645;DHT22;11489;50.834;6.752;2023-02-02T05:58:41;7.70;91.90
22645;DHT22;11489;50.834;6.752;2023-02-02T06:01:07;7.70;92.00
22645;DHT22;11489;50.834;6.752;2023-02-02T06:03:34;7.60;92.00
22645;DHT22;11489;50.834;6.752;2023-02-02T06:06:00;7.70;92.00
22645;DHT22;11489;50.834;6.752;2023-02-02T06:08:26;7.70;91.90
22645;DHT22;11489;50.834;6.752;2023-02-02T06:10:51;7.60;91.90
22645;DHT22;11489;50.834;6.752;2023-02-02T06:13:17;7.60;91.90
22645;DHT22;11489;50.834;6.752;2023-02-02T06:15:43;7.60;91.90
22645;DHT22;11489;50.834;6.752;2023-02-02T06:18:09;7.60;92.00
22645;DHT22;11489;50.834;6.752;2023-02-02T06:20:35;7.60;92.00
22645;DHT22;11489;50.834;6.752;2023-02-02T06:23:01;7.60;92.00
22645;DHT22;11489;50.834;6.752;2023-02-02T06:25:27;7.60;92.10
22645;DHT22;11489;50.834;6.752;2023-02-02T06:27:57;7.60;92.10
22645;DHT22;11489;50.834;6.752;2023-02-02T06:30:23;7.60;92.10
22645;DHT22;11489;50.834;6.752;2023-02-02T06:32:49;7.50;92.10
22645;DHT22;11489;50.834;6.752;2023-02-02T06:35:15;7.60;92.20
22645;DHT22;11489;50.834;6.752;2023-02-02T06:37:40;7.60;92.10
22645;DHT22;11489;50.834;6.752;2023-02-02T06:40:08;7.60;92.10
22645;DHT22;11489;50.834;6.752;2023-02-02T06:42:34;7.60;92.00
22645;DHT22;11489;50.834;6.752;2023-02-02T06:45:01;7.50;92.00
22645;DHT22;11489;50.834;6.752;2023-02-02T06:47:27;7.50;92.00
22645;DHT22;11489;50.834;6.752;2023-02-02T06:49:53;7.50;92.00
22645;DHT22;11489;50.834;6.752;2023-02-02T06:52:19;7.50;92.00
22645;DHT22;11489;50.834;6.752;2023-02-02T06:54:44;7.50;92.10
22645;DHT22;11489;50.834;6.752;2023-02-02T06:57:10;7.50;92.10
22645;DHT22;11489;50.834;6.752;2023-02-02T06:59:36;7.50;92.20
22645;DHT22;11489;50.834;6.752;2023-02-02T07:02:02;7.50;92.20
22645;DHT22;11489;50.834;6.752;2023-02-02T07:04:28;7.50;92.30
22645;DHT22;11489;50.834;6.752;2023-02-02T07:06:54;7.50;92.30
22645;DHT22;11489;50.834;6.752;2023-02-02T07:09:19;7.50;92.40
22645;DHT22;11489;50.834;6.752;2023-02-02T07:11:45;7.50;92.30
22645;DHT22;11489;50.834;6.752;2023-02-02T07:14:11;7.50;92.30
22645;DHT22;11489;50.834;6.752;2023-02-02T07:16:36;7.50;92.30
22645;DHT22;11489;50.834;6.752;2023-02-02T07:19:02;7.60;92.30
22645;DHT22;11489;50.834;6.752;2023-02-02T07:21:28;7.60;92.40
22645;DHT22;11489;50.834;6.752;2023-02-02T07:24:00;7.60;92.30
22645;DHT22;11489;50.834;6.752;2023-02-02T07:26:26;7.60;92.30
22645;DHT22;11489;50.834;6.752;2023-02-02T07:28:53;7.60;92.30
22645;DHT22;11489;50.834;6.752;2023-02-02T07:31:22;7.60;92.30
22645;DHT22;11489;50.834;6.752;2023-02-02T07:33:48;7.60;92.30
22645;DHT22;11489;50.834;6.752;2023-02-02T07:36:17;7.70;92.40
22645;DHT22;11489;50.834;6.752;2023-02-02T07:38:44;7.70;92.40
22645;DHT22;11489;50.834;6.752;2023-02-02T07:41:10;7.70;92.40
22645;DHT22;11489;50.834;6.752;2023-02-02T07:43:36;7.70;92.40
22645;DHT22;11489;50.834;6.752;2023-02-02T07:46:04;7.70;92.40
22645;DHT22;11489;50.834;6.752;2023-02-02T07:48:31;7.70;92.40
22645;DHT22;11489;50.834;6.752;2023-02-02T07:51:02;7.70;92.40
22645;DHT22;11489;50.834;6.752;2023-02-02T07:53:29;7.70;92.30
22645;DHT22;11489;50.834;6.752;2023-02-02T07:56:14;7.70;92.40
22645;DHT22;11489;50.834;6.752;2023-02-02T07:58:40;7.80;92.20
22645;DHT22;11489;50.834;6.752;2023-02-02T08:01:08;7.80;92.40
22645;DHT22;11489;50.834;6.752;2023-02-02T08:03:34;7.80;92.40
22645;DHT22;11489;50.834;6.752;2023-02-02T08:06:01;7.80;92.40
22645;DHT22;11489;50.834;6.752;2023-02-02T08:08:33;7.80;92.40
22645;DHT22;11489;50.834;6.752;2023-02-02T08:10:58;7.80;92.40
22645;DHT22;11489;50.834;6.752;2023-02-02T08:13:24;7.80;92.40
22645;DHT22;11489;50.834;6.752;2023-02-02T08:15:50;7.80;92.40
22645;DHT22;11489;50.834;6.752;2023-02-02T08:18:15;7.90;92.40
22645;DHT22;11489;50.834;6.752;2023-02-02T08:20:41;7.90;92.40
22645;DHT22;11489;50.834;6.752;2023-02-02T08:23:07;7.90;92.40
22645;DHT22;11489;50.834;6.752;2023-02-02T08:25:40;7.90;92.40
22645;DHT22;11489;50.834;6.752;2023-02-02T08:28:06;7.90;92.40
22645;DHT22;11489;50.834;6.752;2023-02-02T08:30:33;8.00;92.40
22645;DHT22;11489;50.834;6.752;2023-02-02T08:32:59;8.00;92.40
22645;DHT22;11489;50.834;6.752;2023-02-02T08:35:25;8.00;92.40
22645;DHT22;11489;50.834;6.752;2023-02-02T08:37:50;8.00;92.40
22645;DHT22;11489;50.834;6.752;2023-02-02T08:40:16;8.00;92.40
22645;DHT22;11489;50.834;6.752;2023-02-02T08:42:42;8.10;92.40
22645;DHT22;11489;50.834;6.752;2023-02-02T08:45:10;8.00;92.40
22645;DHT22;11489;50.834;6.752;2023-02-02T08:47:36;8.10;92.40
22645;DHT22;11489;50.834;6.752;2023-02-02T08:50:01;8.10;92.30
22645;DHT22;11489;50.834;6.752;2023-02-02T08:52:27;8.10;92.30
22645;DHT22;11489;50.834;6.752;2023-02-02T08:54:53;8.10;92.30
22645;DHT22;11489;50.834;6.752;2023-02-02T08:57:19;8.10;92.30
22645;DHT22;11489;50.834;6.752;2023-02-02T08:59:44;8.10;92.30
22645;DHT22;11489;50.834;6.752;2023-02-02T09:02:10;8.10;92.30
22645;DHT22;11489;50.834;6.752;2023-02-02T09:04:38;8.10;92.30
22645;DHT22;11489;50.834;6.752;2023-02-02T09:07:05;8.10;92.40
22645;DHT22;11489;50.834;6.752;2023-02-02T09:09:31;8.10;92.40
22645;DHT22;11489;50.834;6.752;2023-02-02T09:11:57;8.10;92.40
22645;DHT22;11489;50.834;6.752;2023-02-02T09:14:22;8.10;92.40
22645;DHT22;11489;50.834;6.752;2023-02-02T09:16:48;8.20;92.40
22645;DHT22;11489;50.834;6.752;2023-02-02T09:19:14;8.20;92.40
22645;DHT22;11489;50.834;6.752;2023-02-02T09:21:39;8.20;92.50
22645;DHT22;11489;50.834;6.752;2023-02-02T09:24:11;8.20;92.50
22645;DHT22;11489;50.834;6.752;2023-02-02T09:26:37;8.20;92.40
22645;DHT22;11489;50.834;6.752;2023-02-02T09:29:06;8.30;92.50
22645;DHT22;11489;50.834;6.752;2023-02-02T09:31:34;8.30;92.40
22645;DHT22;11489;50.834;6.752;2023-02-02T09:34:02;8.30;92.40
22645;DHT22;11489;50.834;6.752;2023-02-02T09:36:28;8.30;92.40
22645;DHT22;11489;50.834;6.752;2023-02-02T09:38:53;8.40;92.40
22645;DHT22;11489;50.834;6.752;2023-02-02T09:44:26;8.40;92.40
22645;DHT22;11489;50.834;6.752;2023-02-02T09:58:32;8.50;92.30
22645;DHT22;11489;50.834;6.752;2023-02-02T10:01:06;8.60;92.10
22645;DHT22;11489;50.834;6.752;2023-02-02T10:06:39;8.60;92.10
22645;DHT22;11489;50.834;6.752;2023-02-02T10:09:29;8.60;92.40
22645;DHT22;11489;50.834;6.752;2023-02-02T10:12:13;8.60;92.30
22645;DHT22;11489;50.834;6.752;2023-02-02T10:15:18;8.60;92.20
22645;DHT22;11489;50.834;6.752;2023-02-02T10:17:52;8.60;92.00
22645;DHT22;11489;50.834;6.752;2023-02-02T10:20:53;8.60;92.20
22645;DHT22;11489;50.834;6.752;2023-02-02T10:23:30;8.60;92.30
22645;DHT22;11489;50.834;6.752;2023-02-02T10:34:06;8.60;92.30
22645;DHT22;11489;50.834;6.752;2023-02-02T10:36:59;8.60;92.30
22645;DHT22;11489;50.834;6.752;2023-02-02T10:39:53;8.60;92.20
22645;DHT22;11489;50.834;6.752;2023-02-02T10:45:21;8.50;92.20
22645;DHT22;11489;50.834;6.752;2023-02-02T10:47:47;8.60;92.40
22645;DHT22;11489;50.834;6.752;2023-02-02T10:50:19;8.60;92.50
22645;DHT22;11489;50.834;6.752;2023-02-02T10:52:52;8.50;92.60
22645;DHT22;11489;50.834;6.752;2023-02-02T11:03:12;8.60;92.50
22645;DHT22;11489;50.834;6.752;2023-02-02T11:05:38;8.70;92.70
22645;DHT22;11489;50.834;6.752;2023-02-02T11:08:39;8.80;92.70
22645;DHT22;11489;50.834;6.752;2023-02-02T11:11:23;8.80;92.40
22645;DHT22;11489;50.834;6.752;2023-02-02T11:16:42;8.90;92.50
22645;DHT22;11489;50.834;6.752;2023-02-02T11:21:51;9.00;92.70
22645;DHT22;11489;50.834;6.752;2023-02-02T11:24:25;9.00;92.60
22645;DHT22;11489;50.834;6.752;2023-02-02T11:26:52;9.10;92.70
22645;DHT22;11489;50.834;6.752;2023-02-02T11:29:30;9.10;92.50
22645;DHT22;11489;50.834;6.752;2023-02-02T11:31:57;9.20;92.30
22645;DHT22;11489;50.834;6.752;2023-02-02T11:34:25;9.20;92.30
22645;DHT22;11489;50.834;6.752;2023-02-02T11:39:38;9.20;92.00
22645;DHT22;11489;50.834;6.752;2023-02-02T11:42:16;9.20;92.20
22645;DHT22;11489;50.834;6.752;2023-02-02T11:44:54;9.20;92.00
22645;DHT22;11489;50.834;6.752;2023-02-02T11:47:31;9.30;91.80
22645;DHT22;11489;50.834;6.752;2023-02-02T11:50:00;9.30;91.80
22645;DHT22;11489;50.834;6.752;2023-02-02T11:52:28;9.20;91.90
22645;DHT22;11489;50.834;6.752;2023-02-02T11:55:00;9.20;91.70
22645;DHT22;11489;50.834;6.752;2023-02-02T11:57:27;9.20;92.20
22645;DHT22;11489;50.834;6.752;2023-02-02T12:00:17;9.20;92.10
22645;DHT22;11489;50.834;6.752;2023-02-02T12:02:48;9.30;91.40
22645;DHT22;11489;50.834;6.752;2023-02-02T12:07:46;9.30;91.70
22645;DHT22;11489;50.834;6.752;2023-02-02T12:10:26;9.30;92.20
22645;DHT22;11489;50.834;6.752;2023-02-02T12:15:50;9.40;92.10
22645;DHT22;11489;50.834;6.752;2023-02-02T12:18:56;9.50;91.90
22645;DHT22;11489;50.834;6.752;2023-02-02T12:24:29;9.70;92.50
22645;DHT22;11489;50.834;6.752;2023-02-02T12:27:34;9.80;91.80
22645;DHT22;11489;50.834;6.752;2023-02-02T12:41:40;10.10;91.30
22645;DHT22;11489;50.834;6.752;2023-02-02T12:44:27;10.10;91.90
22645;DHT22;11489;50.834;6.752;2023-02-02T12:47:08;10.20;91.50
22645;DHT22;11489;50.834;6.752;2023-02-02T12:49:57;10.20;91.60
22645;DHT22;11489;50.834;6.752;2023-02-02T12:57:49;10.20;91.60
22645;DHT22;11489;50.834;6.752;2023-02-02T13:03:43;10.30;91.00
22645;DHT22;11489;50.834;6.752;2023-02-02T13:09:01;10.30;91.30
22645;DHT22;11489;50.834;6.752;2023-02-02T13:11:46;10.30;91.00
22645;DHT22;11489;50.834;6.752;2023-02-02T13:14:23;10.30;91.00
22645;DHT22;11489;50.834;6.752;2023-02-02T13:16:53;10.20;91.10
22645;DHT22;11489;50.834;6.752;2023-02-02T13:19:37;10.20;91.10
22645;DHT22;11489;50.834;6.752;2023-02-02T13:22:11;10.20;91.20
22645;DHT22;11489;50.834;6.752;2023-02-02T13:24:41;10.20;91.10
22645;DHT22;11489;50.834;6.752;2023-02-02T13:27:13;10.20;91.10
22645;DHT22;11489;50.834;6.752;2023-02-02T13:29:56;10.20;91.00
22645;DHT22;11489;50.834;6.752;2023-02-02T13:32:36;10.20;90.70
22645;DHT22;11489;50.834;6.752;2023-02-02T13:35:12;10.10;90.90
22645;DHT22;11489;50.834;6.752;2023-02-02T13:38:03;10.10;91.20
22645;DHT22;11489;50.834;6.752;2023-02-02T13:40:38;10.10;90.90
22645;DHT22;11489;50.834;6.752;2023-02-02T13:45:44;10.10;91.10
22645;DHT22;11489;50.834;6.752;2023-02-02T13:57:18;10.10;90.70
22645;DHT22;11489;50.834;6.752;2023-02-02T14:02:40;10.10;91.30
22645;DHT22;11489;50.834;6.752;2023-02-02T14:05:07;10.20;91.30
22645;DHT22;11489;50.834;6.752;2023-02-02T14:07:43;10.10;91.30
22645;DHT22;11489;50.834;6.752;2023-02-02T14:10:31;10.20;91.30
22645;DHT22;11489;50.834;6.752;2023-02-02T14:13:15;10.20;90.70
22645;DHT22;11489;50.834;6.752;2023-02-02T14:16:03;10.20;90.80
22645;DHT22;11489;50.834;6.752;2023-02-02T14:24:01;10.20;90.70
22645;DHT22;11489;50.834;6.752;2023-02-02T14:26:44;10.20;91.10
22645;DHT22;11489;50.834;6.752;2023-02-02T14:31:59;10.30;90.50
22645;DHT22;11489;50.834;6.752;2023-02-02T14:34:36;10.20;90.80
22645;DHT22;11489;50.834;6.752;2023-02-02T14:48:14;10.20;90.80
22645;DHT22;11489;50.834;6.752;2023-02-02T14:50:59;10.10;90.80
22645;DHT22;11489;50.834;6.752;2023-02-02T14:53:35;10.10;90.30
22645;DHT22;11489;50.834;6.752;2023-02-02T14:56:05;10.20;90.50
22645;DHT22;11489;50.834;6.752;2023-02-02T14:58:52;10.10;90.70
22645;DHT22;11489;50.834;6.752;2023-02-02T15:06:44;10.10;90.20
22645;DHT22;11489;50.834;6.752;2023-02-02T15:20:28;10.10;90.20
22645;DHT22;11489;50.834;6.752;2023-02-02T15:25:39;10.10;90.60
22645;DHT22;11489;50.834;6.752;2023-02-02T15:28:23;10.00;90.30
22645;DHT22;11489;50.834;6.752;2023-02-02T15:31:40;10.00;90.20
22645;DHT22;11489;50.834;6.752;2023-02-02T15:33:41;10.00;90.50
22645;DHT22;11489;50.834;6.752;2023-02-02T15:36:23;10.00;90.50
22645;DHT22;11489;50.834;6.752;2023-02-02T15:38:56;10.00;90.40
22645;DHT22;11489;50.834;6.752;2023-02-02T15:41:24;9.90;90.40
22645;DHT22;11489;50.834;6.752;2023-02-02T15:43:50;9.90;90.50
22645;DHT22;11489;50.834;6.752;2023-02-02T15:46:23;9.90;90.50
22645;DHT22;11489;50.834;6.752;2023-02-02T15:51:45;9.90;89.90
22645;DHT22;11489;50.834;6.752;2023-02-02T15:54:22;9.90;90.50
22645;DHT22;11489;50.834;6.752;2023-02-02T15:56:50;9.90;90.20
22645;DHT22;11489;50.834;6.752;2023-02-02T15:59:21;9.90;90.50
22645;DHT22;11489;50.834;6.752;2023-02-02T16:01:52;9.90;90.50
22645;DHT22;11489;50.834;6.752;2023-02-02T16:04:26;9.90;90.50
22645;DHT22;11489;50.834;6.752;2023-02-02T16:06:54;9.80;90.50
22645;DHT22;11489;50.834;6.752;2023-02-02T16:09:26;9.80;90.50
22645;DHT22;11489;50.834;6.752;2023-02-02T16:11:53;9.80;90.40
22645;DHT22;11489;50.834;6.752;2023-02-02T16:14:19;9.80;90.50
22645;DHT22;11489;50.834;6.752;2023-02-02T16:16:45;9.80;90.50
22645;DHT22;11489;50.834;6.752;2023-02-02T16:19:23;9.80;90.50
22645;DHT22;11489;50.834;6.752;2023-02-02T16:22:03;9.80;90.30
22645;DHT22;11489;50.834;6.752;2023-02-02T16:24:36;9.80;90.40
22645;DHT22;11489;50.834;6.752;2023-02-02T16:27:09;9.80;90.30
22645;DHT22;11489;50.834;6.752;2023-02-02T16:29:38;9.80;90.30
22645;DHT22;11489;50.834;6.752;2023-02-02T16:32:04;9.70;90.40
22645;DHT22;11489;50.834;6.752;2023-02-02T16:37:15;9.70;90.00
22645;DHT22;11489;50.834;6.752;2023-02-02T16:39:41;9.70;90.10
22645;DHT22;11489;50.834;6.752;2023-02-02T16:42:20;9.60;90.30
22645;DHT22;11489;50.834;6.752;2023-02-02T16:44:47;9.60;90.30
22645;DHT22;11489;50.834;6.752;2023-02-02T16:52:48;9.60;90.10
22645;DHT22;11489;50.834;6.752;2023-02-02T16:55:16;9.60;90.50
22645;DHT22;11489;50.834;6.752;2023-02-02T16:57:44;9.60;90.50
22645;DHT22;11489;50.834;6.752;2023-02-02T17:00:21;9.60;90.50
22645;DHT22;11489;50.834;6.752;2023-02-02T17:02:50;9.60;90.30
22645;DHT22;11489;50.834;6.752;2023-02-02T17:05:29;9.50;90.40
22645;DHT22;11489;50.834;6.752;2023-02-02T17:08:01;9.50;90.20
22645;DHT22;11489;50.834;6.752;2023-02-02T17:10:33;9.50;90.40
22645;DHT22;11489;50.834;6.752;2023-02-02T17:13:00;9.50;90.40
22645;DHT22;11489;50.834;6.752;2023-02-02T17:15:29;9.40;90.70
22645;DHT22;11489;50.834;6.752;2023-02-02T17:17:56;9.50;90.40
22645;DHT22;11489;50.834;6.752;2023-02-02T17:20:22;9.50;90.40
22645;DHT22;11489;50.834;6.752;2023-02-02T17:22:51;9.50;90.30
22645;DHT22;11489;50.834;6.752;2023-02-02T17:25:41;9.50;90.30
22645;DHT22;11489;50.834;6.752;2023-02-02T17:28:10;9.50;90.30
22645;DHT22;11489;50.834;6.752;2023-02-02T17:30:38;9.50;90.20
22645;DHT22;11489;50.834;6.752;2023-02-02T17:33:07;9.50;90.30
22645;DHT22;11489;50.834;6.752;2023-02-02T17:35:33;9.50;90.30
22645;DHT22;11489;50.834;6.752;2023-02-02T17:37:59;9.50;90.30
22645;DHT22;11489;50.834;6.752;2023-02-02T17:40:24;9.50;90.30
22645;DHT22;11489;50.834;6.752;2023-02-02T17:42:51;9.50;90.30
22645;DHT22;11489;50.834;6.752;2023-02-02T17:45:22;9.50;90.40
22645;DHT22;11489;50.834;6.752;2023-02-02T17:47:52;9.50;90.30
22645;DHT22;11489;50.834;6.752;2023-02-02T17:50:18;9.50;90.30
22645;DHT22;11489;50.834;6.752;2023-02-02T17:52:43;9.40;90.30
22645;DHT22;11489;50.834;6.752;2023-02-02T17:55:23;9.50;90.40
22645;DHT22;11489;50.834;6.752;2023-02-02T17:57:52;9.50;90.20
22645;DHT22;11489;50.834;6.752;2023-02-02T18:00:21;9.50;90.40
22645;DHT22;11489;50.834;6.752;2023-02-02T18:02:52;9.40;90.40
22645;DHT22;11489;50.834;6.752;2023-02-02T18:05:19;9.40;90.40
22645;DHT22;11489;50.834;6.752;2023-02-02T18:07:45;9.50;90.50
22645;DHT22;11489;50.834;6.752;2023-02-02T18:10:12;9.50;90.50
22645;DHT22;11489;50.834;6.752;2023-02-02T18:12:38;9.40;90.50
22645;DHT22;11489;50.834;6.752;2023-02-02T18:15:05;9.40;90.60
22645;DHT22;11489;50.834;6.752;2023-02-02T18:17:32;9.40;90.60
22645;DHT22;11489;50.834;6.752;2023-02-02T18:19:58;9.50;90.60
22645;DHT22;11489;50.834;6.752;2023-02-02T18:22:24;9.50;90.60
22645;DHT22;11489;50.834;6.752;2023-02-02T18:24:50;9.40;90.70
22645;DHT22;11489;50.834;6.752;2023-02-02T18:27:16;9.40;90.70
22645;DHT22;11489;50.834;6.752;2023-02-02T18:29:45;9.50;90.70
22645;DHT22;11489;50.834;6.752;2023-02-02T18:32:12;9.50;90.70
22645;DHT22;11489;50.834;6.752;2023-02-02T18:34:38;9.50;90.70
22645;DHT22;11489;50.834;6.752;2023-02-02T18:37:04;9.50;90.80
22645;DHT22;11489;50.834;6.752;2023-02-02T18:39:30;9.50;90.80
22645;DHT22;11489;50.834;6.752;2023-02-02T18:41:56;9.50;90.80
22645;DHT22;11489;50.834;6.752;2023-02-02T18:44:21;9.50;90.80
22645;DHT22;11489;50.834;6.752;2023-02-02T18:46:52;9.50;90.80